sensor_id;sensor_type;location;lat;lon;timestamp;temperature;humidity
29777;DHT22;16677;52.224;7.484;2023-02-13T00:00:51;8.20;70.50
29777;DHT22;16677;52.224;7.484;2023-02-13T00:03:23;8.20;63.20
29777;DHT22;16677;52.224;7.484;2023-02-13T00:05:52;8.20;51.10
29777;DHT22;16677;52.224;7.484;2023-02-13T00:08:19;8.30;60.70
29777;DHT22;16677;52.224;7.484;2023-02-13T00:10:48;8.20;68.10
29777;DHT22;16677;52.224;7.484;2023-02-13T00:13:15;8.20;96.20
29777;DHT22;16677;52.224;7.484;2023-02-13T00:15:42;8.20;77.80
29777;DHT22;16677;52.224;7.484;2023-02-13T00:18:10;8.10;82.70
29777;DHT22;16677;52.224;7.484;2023-02-13T00:20:37;8.10;99.90
29777;DHT22;16677;52.224;7.484;2023-02-13T00:23:07;8.10;99.90
29777;DHT22;16677;52.224;7.484;2023-02-13T00:25:37;8.10;99.90
29777;DHT22;16677;52.224;7.484;2023-02-13T00:28:04;8.10;99.90
29777;DHT22;16677;52.224;7.484;2023-02-13T00:30:31;8.20;99.90
29777;DHT22;16677;52.224;7.484;2023-02-13T00:33:19;8.20;99.90
29777;DHT22;16677;52.224;7.484;2023-02-13T00:36:11;8.20;99.90
29777;DHT22;16677;52.224;7.484;2023-02-13T00:38:41;8.30;99.90
29777;DHT22;16677;52.224;7.484;2023-02-13T00:41:12;8.30;99.90
29777;DHT22;16677;52.224;7.484;2023-02-13T00:43:39;8.30;97.90
29777;DHT22;16677;52.224;7.484;2023-02-13T00:46:06;8.30;84.20
29777;DHT22;16677;52.224;7.484;2023-02-13T00:48:35;8.20;70.70
29777;DHT22;16677;52.224;7.484;2023-02-13T00:51:03;8.20;51.00
29777;DHT22;16677;52.224;7.484;2023-02-13T00:53:34;8.20;35.60
29777;DHT22;16677;52.224;7.484;2023-02-13T00:56:02;8.30;2.90
29777;DHT22;16677;52.224;7.484;2023-02-13T00:58:29;8.30;1.00
29777;DHT22;16677;52.224;7.484;2023-02-13T01:00:57;8.20;21.40
29777;DHT22;16677;52.224;7.484;2023-02-13T01:03:25;8.20;51.00
29777;DHT22;16677;52.224;7.484;2023-02-13T01:05:52;8.20;80.70
29777;DHT22;16677;52.224;7.484;2023-02-13T01:08:19;8.30;44.40
29777;DHT22;16677;52.224;7.484;2023-02-13T01:10:47;8.30;11.70
29777;DHT22;16677;52.224;7.484;2023-02-13T01:13:16;8.30;1.00
29777;DHT22;16677;52.224;7.484;2023-02-13T01:15:47;8.40;1.00
29777;DHT22;16677;52.224;7.484;2023-02-13T01:18:19;8.20;1.00
29777;DHT22;16677;52.224;7.484;2023-02-13T01:20:56;8.30;1.00
29777;DHT22;16677;52.224;7.484;2023-02-13T01:23:28;8.40;1.00
29777;DHT22;16677;52.224;7.484;2023-02-13T01:25:55;8.30;1.00
29777;DHT22;16677;52.224;7.484;2023-02-13T01:28:25;8.20;1.00
29777;DHT22;16677;52.224;7.484;2023-02-13T01:31:00;8.20;1.00
29777;DHT22;16677;52.224;7.484;2023-02-13T01:33:29;8.10;1.00
29777;DHT22;16677;52.224;7.484;2023-02-13T01:35:57;8.10;1.00
29777;DHT22;16677;52.224;7.484;2023-02-13T01:38:33;8.00;1.00
29777;DHT22;16677;52.224;7.484;2023-02-13T01:41:01;8.20;1.00
29777;DHT22;16677;52.224;7.484;2023-02-13T01:43:52;8.00;36.40
29777;DHT22;16677;52.224;7.484;2023-02-13T01:46:30;8.00;81.90
29777;DHT22;16677;52.224;7.484;2023-02-13T01:49:08;8.00;72.10
29777;DHT22;16677;52.224;7.484;2023-02-13T01:51:41;8.00;28.70
29777;DHT22;16677;52.224;7.484;2023-02-13T01:54:13;8.00;45.70
29777;DHT22;16677;52.224;7.484;2023-02-13T01:56:47;8.00;47.00
29777;DHT22;16677;52.224;7.484;2023-02-13T01:59:28;8.00;30.90
29777;DHT22;16677;52.224;7.484;2023-02-13T02:01:58;8.00;33.70
29777;DHT22;16677;52.224;7.484;2023-02-13T02:04:37;8.00;54.40
29777;DHT22;16677;52.224;7.484;2023-02-13T02:07:23;8.10;29.50
29777;DHT22;16677;52.224;7.484;2023-02-13T02:09:55;8.10;16.80
29777;DHT22;16677;52.224;7.484;2023-02-13T02:15:05;8.10;1.00
29777;DHT22;16677;52.224;7.484;2023-02-13T02:17:35;8.10;1.00
29777;DHT22;16677;52.224;7.484;2023-02-13T02:20:28;8.10;1.00
29777;DHT22;16677;52.224;7.484;2023-02-13T02:32:04;8.10;1.00
29777;DHT22;16677;52.224;7.484;2023-02-13T02:34:53;8.10;1.00
29777;DHT22;16677;52.224;7.484;2023-02-13T02:56:25;8.00;1.00
29777;DHT22;16677;52.224;7.484;2023-02-13T02:58:59;8.10;1.00
29777;DHT22;16677;52.224;7.484;2023-02-13T03:01:48;8.00;1.00
29777;DHT22;16677;52.224;7.484;2023-02-13T03:04:46;7.90;1.00
29777;DHT22;16677;52.224;7.484;2023-02-13T03:07:33;7.90;18.90
29777;DHT22;16677;52.224;7.484;2023-02-13T03:10:07;7.90;1.00
29777;DHT22;16677;52.224;7.484;2023-02-13T03:13:03;7.90;20.60
29777;DHT22;16677;52.224;7.484;2023-02-13T03:15:52;7.90;1.00
29777;DHT22;16677;52.224;7.484;2023-02-13T03:18:41;7.90;48.60
29777;DHT22;16677;52.224;7.484;2023-02-13T03:21:52;8.00;1.00
29777;DHT22;16677;52.224;7.484;2023-02-13T03:26:02;8.30;1.00
29777;DHT22;16677;52.224;7.484;2023-02-13T03:28:18;8.40;1.00
29777;DHT22;16677;52.224;7.484;2023-02-13T03:31:24;8.20;1.00
29777;DHT22;16677;52.224;7.484;2023-02-13T03:34:05;8.00;1.00
29777;DHT22;16677;52.224;7.484;2023-02-13T03:39:43;8.00;1.00
29777;DHT22;16677;52.224;7.484;2023-02-13T03:44:55;8.00;1.00
29777;DHT22;16677;52.224;7.484;2023-02-13T03:47:44;7.90;4.00
29777;DHT22;16677;52.224;7.484;2023-02-13T03:50:14;8.00;12.20
29777;DHT22;16677;52.224;7.484;2023-02-13T03:52:53;8.00;34.10
29777;DHT22;16677;52.224;7.484;2023-02-13T03:55:29;8.00;43.50
29777;DHT22;16677;52.224;7.484;2023-02-13T04:01:09;7.90;99.90
29777;DHT22;16677;52.224;7.484;2023-02-13T04:04:08;7.80;99.90
29777;DHT22;16677;52.224;7.484;2023-02-13T04:06:54;7.90;99.90
29777;DHT22;16677;52.224;7.484;2023-02-13T04:09:24;7.80;99.90
29777;DHT22;16677;52.224;7.484;2023-02-13T04:17:22;7.90;99.90
29777;DHT22;16677;52.224;7.484;2023-02-13T04:19:50;7.90;99.90
29777;DHT22;16677;52.224;7.484;2023-02-13T04:22:18;8.00;99.90
29777;DHT22;16677;52.224;7.484;2023-02-13T04:24:45;8.00;99.90
29777;DHT22;16677;52.224;7.484;2023-02-13T04:27:18;7.90;99.90
29777;DHT22;16677;52.224;7.484;2023-02-13T04:29:45;7.90;99.90
29777;DHT22;16677;52.224;7.484;2023-02-13T04:32:12;7.90;99.90
29777;DHT22;16677;52.224;7.484;2023-02-13T04:34:40;7.90;99.90
29777;DHT22;16677;52.224;7.484;2023-02-13T04:37:08;7.90;99.90
29777;DHT22;16677;52.224;7.484;2023-02-13T04:39:36;8.00;99.90
29777;DHT22;16677;52.224;7.484;2023-02-13T04:42:05;7.90;99.90
29777;DHT22;16677;52.224;7.484;2023-02-13T04:44:32;8.00;99.90
29777;DHT22;16677;52.224;7.484;2023-02-13T04:47:00;8.00;99.90
29777;DHT22;16677;52.224;7.484;2023-02-13T04:49:29;8.00;99.90
29777;DHT22;16677;52.224;7.484;2023-02-13T04:51:56;7.90;99.90
29777;DHT22;16677;52.224;7.484;2023-02-13T04:54:23;8.00;99.90
29777;DHT22;16677;52.224;7.484;2023-02-13T04:57:00;8.00;99.90
29777;DHT22;16677;52.224;7.484;2023-02-13T04:59:28;8.00;99.90
29777;DHT22;16677;52.224;7.484;2023-02-13T05:01:55;8.00;99.90
29777;DHT22;16677;52.224;7.484;2023-02-13T05:04:22;8.00;99.90
29777;DHT22;16677;52.224;7.484;2023-02-13T05:06:49;8.00;99.90
29777;DHT22;16677;52.224;7.484;2023-02-13T05:09:16;8.00;99.90
29777;DHT22;16677;52.224;7.484;2023-02-13T05:11:46;8.00;99.90
29777;DHT22;16677;52.224;7.484;2023-02-13T05:14:13;8.00;99.90
29777;DHT22;16677;52.224;7.484;2023-02-13T05:16:40;8.00;99.90
29777;DHT22;16677;52.224;7.484;2023-02-13T05:19:07;8.10;99.90
29777;DHT22;16677;52.224;7.484;2023-02-13T05:21:35;8.00;99.90
29777;DHT22;16677;52.224;7.484;2023-02-13T05:24:24;8.10;99.90
29777;DHT22;16677;52.224;7.484;2023-02-13T05:26:52;8.10;99.90
29777;DHT22;16677;52.224;7.484;2023-02-13T05:29:22;8.10;93.60
29777;DHT22;16677;52.224;7.484;2023-02-13T05:31:53;8.20;1.00
29777;DHT22;16677;52.224;7.484;2023-02-13T05:34:28;8.10;1.00
29777;DHT22;16677;52.224;7.484;2023-02-13T05:36:57;8.10;1.00
29777;DHT22;16677;52.224;7.484;2023-02-13T05:39:24;8.00;17.10
29777;DHT22;16677;52.224;7.484;2023-02-13T05:41:52;8.00;53.70
29777;DHT22;16677;52.224;7.484;2023-02-13T05:44:21;8.00;19.30
29777;DHT22;16677;52.224;7.484;2023-02-13T05:46:50;7.90;57.90
29777;DHT22;16677;52.224;7.484;2023-02-13T05:49:19;7.90;92.20
29777;DHT22;16677;52.224;7.484;2023-02-13T05:51:48;8.00;91.70
29777;DHT22;16677;52.224;7.484;2023-02-13T05:54:17;8.00;93.20
29777;DHT22;16677;52.224;7.484;2023-02-13T05:56:49;8.00;99.90
29777;DHT22;16677;52.224;7.484;2023-02-13T05:59:16;8.10;99.90
29777;DHT22;16677;52.224;7.484;2023-02-13T06:01:50;8.10;67.60
29777;DHT22;16677;52.224;7.484;2023-02-13T06:04:32;8.10;62.60
29777;DHT22;16677;52.224;7.484;2023-02-13T06:07:02;8.10;65.10
29777;DHT22;16677;52.224;7.484;2023-02-13T06:09:35;8.20;28.90
29777;DHT22;16677;52.224;7.484;2023-02-13T06:12:05;8.00;67.40
29777;DHT22;16677;52.224;7.484;2023-02-13T06:14:46;8.20;1.00
29777;DHT22;16677;52.224;7.484;2023-02-13T06:17:13;8.10;1.00
29777;DHT22;16677;52.224;7.484;2023-02-13T06:19:54;8.20;1.00
29777;DHT22;16677;52.224;7.484;2023-02-13T06:22:24;8.10;1.00
29777;DHT22;16677;52.224;7.484;2023-02-13T06:24:55;8.10;1.00
29777;DHT22;16677;52.224;7.484;2023-02-13T06:27:31;8.20;1.00
29777;DHT22;16677;52.224;7.484;2023-02-13T06:30:16;8.20;1.00
29777;DHT22;16677;52.224;7.484;2023-02-13T06:32:58;8.20;1.00
29777;DHT22;16677;52.224;7.484;2023-02-13T06:35:26;8.10;1.00
29777;DHT22;16677;52.224;7.484;2023-02-13T06:38:04;8.10;1.00
29777;DHT22;16677;52.224;7.484;2023-02-13T06:40:36;8.00;1.00
29777;DHT22;16677;52.224;7.484;2023-02-13T06:43:05;8.00;1.00
29777;DHT22;16677;52.224;7.484;2023-02-13T06:45:34;8.00;1.00
29777;DHT22;16677;52.224;7.484;2023-02-13T06:48:13;8.00;33.00
29777;DHT22;16677;52.224;7.484;2023-02-13T06:50:54;8.10;16.40
29777;DHT22;16677;52.224;7.484;2023-02-13T06:53:25;8.00;22.60
29777;DHT22;16677;52.224;7.484;2023-02-13T06:55:56;8.00;4.90
29777;DHT22;16677;52.224;7.484;2023-02-13T06:58:24;8.00;33.30
29777;DHT22;16677;52.224;7.484;2023-02-13T07:00:52;8.00;72.50
29777;DHT22;16677;52.224;7.484;2023-02-13T07:03:26;8.00;47.00
29777;DHT22;16677;52.224;7.484;2023-02-13T07:06:05;8.00;91.00
29777;DHT22;16677;52.224;7.484;2023-02-13T07:08:38;8.10;93.80
29777;DHT22;16677;52.224;7.484;2023-02-13T07:11:08;8.10;91.30
29777;DHT22;16677;52.224;7.484;2023-02-13T07:13:45;8.00;64.00
29777;DHT22;16677;52.224;7.484;2023-02-13T07:16:12;8.10;94.00
29777;DHT22;16677;52.224;7.484;2023-02-13T07:18:45;8.10;68.20
29777;DHT22;16677;52.224;7.484;2023-02-13T07:21:27;8.10;47.20
29777;DHT22;16677;52.224;7.484;2023-02-13T07:23:57;8.20;15.50
29777;DHT22;16677;52.224;7.484;2023-02-13T07:26:25;8.10;3.50
29777;DHT22;16677;52.224;7.484;2023-02-13T07:28:59;8.10;1.00
29777;DHT22;16677;52.224;7.484;2023-02-13T07:31:40;8.10;1.00
29777;DHT22;16677;52.224;7.484;2023-02-13T07:34:08;8.10;1.00
29777;DHT22;16677;52.224;7.484;2023-02-13T07:36:35;8.20;7.80
29777;DHT22;16677;52.224;7.484;2023-02-13T07:39:17;8.30;1.00
29777;DHT22;16677;52.224;7.484;2023-02-13T07:41:47;8.20;1.00
29777;DHT22;16677;52.224;7.484;2023-02-13T07:44:31;8.30;1.00
29777;DHT22;16677;52.224;7.484;2023-02-13T07:47:03;8.20;1.00
29777;DHT22;16677;52.224;7.484;2023-02-13T07:50:02;8.40;1.00
29777;DHT22;16677;52.224;7.484;2023-02-13T07:53:01;8.10;1.00
29777;DHT22;16677;52.224;7.484;2023-02-13T07:55:29;8.40;1.00
29777;DHT22;16677;52.224;7.484;2023-02-13T07:58:04;8.50;1.00
29777;DHT22;16677;52.224;7.484;2023-02-13T08:00:57;8.30;1.00
29777;DHT22;16677;52.224;7.484;2023-02-13T08:03:24;8.50;1.00
29777;DHT22;16677;52.224;7.484;2023-02-13T08:05:51;8.90;1.00
29777;DHT22;16677;52.224;7.484;2023-02-13T08:08:18;8.70;1.00
29777;DHT22;16677;52.224;7.484;2023-02-13T08:10:45;8.80;1.00
29777;DHT22;16677;52.224;7.484;2023-02-13T08:13:31;8.80;1.00
29777;DHT22;16677;52.224;7.484;2023-02-13T08:15:58;8.90;1.00
29777;DHT22;16677;52.224;7.484;2023-02-13T08:18:25;8.90;1.00
29777;DHT22;16677;52.224;7.484;2023-02-13T08:20:52;8.90;1.00
29777;DHT22;16677;52.224;7.484;2023-02-13T08:23:18;8.90;1.00
29777;DHT22;16677;52.224;7.484;2023-02-13T08:25:45;8.90;1.00
29777;DHT22;16677;52.224;7.484;2023-02-13T08:28:15;8.90;1.00
29777;DHT22;16677;52.224;7.484;2023-02-13T08:30:42;8.90;1.00
29777;DHT22;16677;52.224;7.484;2023-02-13T08:33:09;9.00;1.00
29777;DHT22;16677;52.224;7.484;2023-02-13T08:35:36;9.00;1.00
29777;DHT22;16677;52.224;7.484;2023-02-13T08:38:04;9.10;1.00
29777;DHT22;16677;52.224;7.484;2023-02-13T08:40:32;9.20;1.00
29777;DHT22;16677;52.224;7.484;2023-02-13T08:43:03;9.20;1.00
29777;DHT22;16677;52.224;7.484;2023-02-13T08:45:32;9.20;1.00
29777;DHT22;16677;52.224;7.484;2023-02-13T08:47:59;9.30;1.00
29777;DHT22;16677;52.224;7.484;2023-02-13T08:50:27;9.30;1.00
29777;DHT22;16677;52.224;7.484;2023-02-13T08:52:54;9.30;1.00
29777;DHT22;16677;52.224;7.484;2023-02-13T08:55:21;9.40;1.00
29777;DHT22;16677;52.224;7.484;2023-02-13T08:57:48;9.40;1.00
29777;DHT22;16677;52.224;7.484;2023-02-13T09:00:15;9.50;1.00
29777;DHT22;16677;52.224;7.484;2023-02-13T09:02:42;9.50;1.00
29777;DHT22;16677;52.224;7.484;2023-02-13T09:05:09;9.50;1.00
29777;DHT22;16677;52.224;7.484;2023-02-13T09:07:36;9.50;1.00
29777;DHT22;16677;52.224;7.484;2023-02-13T09:10:03;9.50;1.00
29777;DHT22;16677;52.224;7.484;2023-02-13T09:12:30;9.40;1.00
29777;DHT22;16677;52.224;7.484;2023-02-13T09:14:57;9.60;1.00
29777;DHT22;16677;52.224;7.484;2023-02-13T09:17:24;9.70;1.00
29777;DHT22;16677;52.224;7.484;2023-02-13T09:19:50;9.80;1.00
29777;DHT22;16677;52.224;7.484;2023-02-13T09:22:17;9.90;1.00
29777;DHT22;16677;52.224;7.484;2023-02-13T09:24:44;9.80;1.00
29777;DHT22;16677;52.224;7.484;2023-02-13T09:27:11;9.80;1.00
29777;DHT22;16677;52.224;7.484;2023-02-13T09:29:39;9.90;1.00
29777;DHT22;16677;52.224;7.484;2023-02-13T09:32:06;9.90;1.00
29777;DHT22;16677;52.224;7.484;2023-02-13T09:34:33;9.80;1.00
29777;DHT22;16677;52.224;7.484;2023-02-13T09:37:00;10.00;1.00
29777;DHT22;16677;52.224;7.484;2023-02-13T09:39:27;10.10;1.00
29777;DHT22;16677;52.224;7.484;2023-02-13T09:41:55;10.40;99.90
29777;DHT22;16677;52.224;7.484;2023-02-13T09:44:42;10.40;99.90
29777;DHT22;16677;52.224;7.484;2023-02-13T09:47:29;10.60;99.90
29777;DHT22;16677;52.224;7.484;2023-02-13T09:50:17;10.70;99.90
29777;DHT22;16677;52.224;7.484;2023-02-13T09:52:49;10.80;99.90
29777;DHT22;16677;52.224;7.484;2023-02-13T09:55:26;11.10;99.90
29777;DHT22;16677;52.224;7.484;2023-02-13T10:00:52;10.90;99.90
29777;DHT22;16677;52.224;7.484;2023-02-13T10:06:08;10.80;99.90
29777;DHT22;16677;52.224;7.484;2023-02-13T10:17:13;10.60;99.90
29777;DHT22;16677;52.224;7.484;2023-02-13T10:19:54;10.70;99.90
29777;DHT22;16677;52.224;7.484;2023-02-13T10:22:31;10.60;99.90
29777;DHT22;16677;52.224;7.484;2023-02-13T10:25:03;10.60;99.90
29777;DHT22;16677;52.224;7.484;2023-02-13T10:27:38;10.50;99.90
29777;DHT22;16677;52.224;7.484;2023-02-13T10:30:21;10.50;99.90
29777;DHT22;16677;52.224;7.484;2023-02-13T10:39:31;10.50;99.90
29777;DHT22;16677;52.224;7.484;2023-02-13T10:42:14;10.70;99.90
29777;DHT22;16677;52.224;7.484;2023-02-13T10:58:33;11.10;99.90
29777;DHT22;16677;52.224;7.484;2023-02-13T11:01:38;11.30;99.90
29777;DHT22;16677;52.224;7.484;2023-02-13T11:04:12;11.40;99.90
29777;DHT22;16677;52.224;7.484;2023-02-13T11:06:43;11.40;99.90
29777;DHT22;16677;52.224;7.484;2023-02-13T11:09:12;11.50;99.90
29777;DHT22;16677;52.224;7.484;2023-02-13T11:11:41;11.60;99.90
29777;DHT22;16677;52.224;7.484;2023-02-13T11:17:15;11.30;99.90
29777;DHT22;16677;52.224;7.484;2023-02-13T11:19:49;11.40;99.90
29777;DHT22;16677;52.224;7.484;2023-02-13T11:22:37;11.40;99.90
29777;DHT22;16677;52.224;7.484;2023-02-13T11:25:25;11.60;99.90
29777;DHT22;16677;52.224;7.484;2023-02-13T11:28:16;11.90;99.90
29777;DHT22;16677;52.224;7.484;2023-02-13T11:30:46;11.90;99.90
29777;DHT22;16677;52.224;7.484;2023-02-13T11:33:23;12.00;99.90
29777;DHT22;16677;52.224;7.484;2023-02-13T11:36:21;11.80;99.90
29777;DHT22;16677;52.224;7.484;2023-02-13T11:41:25;12.30;99.90
29777;DHT22;16677;52.224;7.484;2023-02-13T11:43:54;12.20;99.90
29777;DHT22;16677;52.224;7.484;2023-02-13T11:46:45;12.20;99.90
29777;DHT22;16677;52.224;7.484;2023-02-13T11:49:23;12.20;99.90
29777;DHT22;16677;52.224;7.484;2023-02-13T11:51:54;11.80;99.90
29777;DHT22;16677;52.224;7.484;2023-02-13T11:54:34;11.90;99.90
29777;DHT22;16677;52.224;7.484;2023-02-13T11:57:34;12.20;99.90
29777;DHT22;16677;52.224;7.484;2023-02-13T12:02:54;11.80;99.90
29777;DHT22;16677;52.224;7.484;2023-02-13T12:05:24;11.60;99.90
29777;DHT22;16677;52.224;7.484;2023-02-13T12:07:58;11.70;99.90
29777;DHT22;16677;52.224;7.484;2023-02-13T12:10:33;11.60;99.90
29777;DHT22;16677;52.224;7.484;2023-02-13T12:18:54;11.30;99.90
29777;DHT22;16677;52.224;7.484;2023-02-13T12:21:35;11.40;99.90
29777;DHT22;16677;52.224;7.484;2023-02-13T12:26:45;11.40;99.90
29777;DHT22;16677;52.224;7.484;2023-02-13T12:49:22;11.70;99.90
29777;DHT22;16677;52.224;7.484;2023-02-13T12:52:35;11.40;99.90
29777;DHT22;16677;52.224;7.484;2023-02-13T12:55:31;11.20;99.90
29777;DHT22;16677;52.224;7.484;2023-02-13T13:14:52;11.50;99.90
29777;DHT22;16677;52.224;7.484;2023-02-13T13:22:33;11.50;99.90
29777;DHT22;16677;52.224;7.484;2023-02-13T13:25:33;11.40;99.90
29777;DHT22;16677;52.224;7.484;2023-02-13T13:28:06;11.60;99.90
29777;DHT22;16677;52.224;7.484;2023-02-13T13:30:37;11.60;99.90
29777;DHT22;16677;52.224;7.484;2023-02-13T13:33:25;11.80;99.90
29777;DHT22;16677;52.224;7.484;2023-02-13T13:41:34;11.50;99.90
29777;DHT22;16677;52.224;7.484;2023-02-13T13:50:22;11.40;99.90
29777;DHT22;16677;52.224;7.484;2023-02-13T14:03:58;11.00;99.90
29777;DHT22;16677;52.224;7.484;2023-02-13T14:06:26;11.10;99.90
29777;DHT22;16677;52.224;7.484;2023-02-13T14:14:01;11.30;99.90
29777;DHT22;16677;52.224;7.484;2023-02-13T14:16:47;11.40;99.90
29777;DHT22;16677;52.224;7.484;2023-02-13T14:19:31;11.40;99.90
29777;DHT22;16677;52.224;7.484;2023-02-13T14:24:33;11.50;99.90
29777;DHT22;16677;52.224;7.484;2023-02-13T14:27:01;11.50;99.90
29777;DHT22;16677;52.224;7.484;2023-02-13T14:29:32;11.40;99.90
29777;DHT22;16677;52.224;7.484;2023-02-13T14:32:29;11.50;99.90
29777;DHT22;16677;52.224;7.484;2023-02-13T14:35:15;11.50;99.90
29777;DHT22;16677;52.224;7.484;2023-02-13T14:38:00;11.40;99.90
29777;DHT22;16677;52.224;7.484;2023-02-13T14:40:31;11.40;99.90
29777;DHT22;16677;52.224;7.484;2023-02-13T14:48:20;11.50;99.90
29777;DHT22;16677;52.224;7.484;2023-02-13T14:50:51;11.40;99.90
29777;DHT22;16677;52.224;7.484;2023-02-13T14:53:50;11.40;99.90
29777;DHT22;16677;52.224;7.484;2023-02-13T14:56:19;11.40;99.90
29777;DHT22;16677;52.224;7.484;2023-02-13T15:01:46;11.30;99.90
29777;DHT22;16677;52.224;7.484;2023-02-13T15:04:35;11.30;99.90
29777;DHT22;16677;52.224;7.484;2023-02-13T15:07:06;11.20;99.90
29777;DHT22;16677;52.224;7.484;2023-02-13T15:09:39;11.30;99.90
29777;DHT22;16677;52.224;7.484;2023-02-13T15:12:42;11.20;99.90
29777;DHT22;16677;52.224;7.484;2023-02-13T15:15:24;11.20;99.90
29777;DHT22;16677;52.224;7.484;2023-02-13T15:18:02;11.20;99.90
29777;DHT22;16677;52.224;7.484;2023-02-13T15:20:33;11.20;99.90
29777;DHT22;16677;52.224;7.484;2023-02-13T15:23:00;11.10;99.90
29777;DHT22;16677;52.224;7.484;2023-02-13T15:25:38;11.10;99.90
29777;DHT22;16677;52.224;7.484;2023-02-13T15:28:07;10.90;99.90
29777;DHT22;16677;52.224;7.484;2023-02-13T15:33:25;10.90;99.90
29777;DHT22;16677;52.224;7.484;2023-02-13T15:36:23;10.90;99.90
29777;DHT22;16677;52.224;7.484;2023-02-13T15:39:02;11.00;99.90
29777;DHT22;16677;52.224;7.484;2023-02-13T15:47:57;10.70;99.90
29777;DHT22;16677;52.224;7.484;2023-02-13T15:50:58;10.20;99.90
29777;DHT22;16677;52.224;7.484;2023-02-13T15:54:26;10.50;99.90
29777;DHT22;16677;52.224;7.484;2023-02-13T15:57:17;10.50;99.90
29777;DHT22;16677;52.224;7.484;2023-02-13T16:00:31;10.50;99.90
29777;DHT22;16677;52.224;7.484;2023-02-13T16:03:16;9.80;99.90
29777;DHT22;16677;52.224;7.484;2023-02-13T16:24:17;10.00;99.90
29777;DHT22;16677;52.224;7.484;2023-02-13T17:02:38;8.50;1.00
29777;DHT22;16677;52.224;7.484;2023-02-13T17:05:27;8.30;1.00
29777;DHT22;16677;52.224;7.484;2023-02-13T17:11:53;8.00;1.00
29777;DHT22;16677;52.224;7.484;2023-02-13T17:14:20;8.20;1.00
29777;DHT22;16677;52.224;7.484;2023-02-13T17:17:11;8.10;1.00
29777;DHT22;16677;52.224;7.484;2023-02-13T17:20:42;7.90;1.00
29777;DHT22;16677;52.224;7.484;2023-02-13T17:23:21;7.90;1.00
29777;DHT22;16677;52.224;7.484;2023-02-13T17:25:49;7.90;1.00
29777;DHT22;16677;52.224;7.484;2023-02-13T17:28:19;8.00;1.00
29777;DHT22;16677;52.224;7.484;2023-02-13T17:30:51;7.90;1.00
29777;DHT22;16677;52.224;7.484;2023-02-13T17:33:21;7.70;1.00
29777;DHT22;16677;52.224;7.484;2023-02-13T17:35:48;7.70;1.00
29777;DHT22;16677;52.224;7.484;2023-02-13T17:38:16;7.60;1.00
29777;DHT22;16677;52.224;7.484;2023-02-13T17:40:44;7.50;1.00
29777;DHT22;16677;52.224;7.484;2023-02-13T17:43:16;7.40;1.00
29777;DHT22;16677;52.224;7.484;2023-02-13T17:45:45;7.40;1.00
29777;DHT22;16677;52.224;7.484;2023-02-13T17:48:13;7.40;1.00
29777;DHT22;16677;52.224;7.484;2023-02-13T17:50:40;7.30;1.00
29777;DHT22;16677;52.224;7.484;2023-02-13T17:53:18;7.30;1.00
29777;DHT22;16677;52.224;7.484;2023-02-13T17:55:58;6.70;1.00
29777;DHT22;16677;52.224;7.484;2023-02-13T17:58:25;7.50;1.00
29777;DHT22;16677;52.224;7.484;2023-02-13T18:00:52;7.40;1.00
29777;DHT22;16677;52.224;7.484;2023-02-13T18:03:20;7.60;1.00
29777;DHT22;16677;52.224;7.484;2023-02-13T18:05:49;7.40;1.00
29777;DHT22;16677;52.224;7.484;2023-02-13T18:08:16;7.20;1.00
29777;DHT22;16677;52.224;7.484;2023-02-13T18:10:43;7.10;1.00
29777;DHT22;16677;52.224;7.484;2023-02-13T18:13:11;6.90;1.00
29777;DHT22;16677;52.224;7.484;2023-02-13T18:15:47;6.90;4.60
29777;DHT22;16677;52.224;7.484;2023-02-13T18:18:28;6.80;91.90
29777;DHT22;16677;52.224;7.484;2023-02-13T18:20:57;6.70;99.90
29777;DHT22;16677;52.224;7.484;2023-02-13T18:26:53;6.50;99.90
29777;DHT22;16677;52.224;7.484;2023-02-13T18:29:21;6.40;99.90
29777;DHT22;16677;52.224;7.484;2023-02-13T18:32:23;6.40;1.00
29777;DHT22;16677;52.224;7.484;2023-02-13T18:35:44;6.40;1.00
29777;DHT22;16677;52.224;7.484;2023-02-13T18:38:12;6.30;1.00
29777;DHT22;16677;52.224;7.484;2023-02-13T18:40:39;6.20;1.00
29777;DHT22;16677;52.224;7.484;2023-02-13T18:43:11;6.40;99.90
29777;DHT22;16677;52.224;7.484;2023-02-13T18:46:12;6.20;99.90
29777;DHT22;16677;52.224;7.484;2023-02-13T18:49:22;6.20;99.90
29777;DHT22;16677;52.224;7.484;2023-02-13T18:58:09;6.50;1.00
29777;DHT22;16677;52.224;7.484;2023-02-13T19:00:39;6.40;99.90
29777;DHT22;16677;52.224;7.484;2023-02-13T19:03:38;6.30;1.00
29777;DHT22;16677;52.224;7.484;2023-02-13T19:06:22;6.20;1.00
29777;DHT22;16677;52.224;7.484;2023-02-13T19:12:58;6.00;1.00
29777;DHT22;16677;52.224;7.484;2023-02-13T19:15:25;6.00;1.00
29777;DHT22;16677;52.224;7.484;2023-02-13T19:18:02;5.90;1.00
29777;DHT22;16677;52.224;7.484;2023-02-13T19:20:49;5.90;99.90
29777;DHT22;16677;52.224;7.484;2023-02-13T19:23:16;5.80;1.00
29777;DHT22;16677;52.224;7.484;2023-02-13T19:25:44;5.80;99.90
29777;DHT22;16677;52.224;7.484;2023-02-13T19:28:12;5.80;99.90
29777;DHT22;16677;52.224;7.484;2023-02-13T19:31:13;5.80;99.90
29777;DHT22;16677;52.224;7.484;2023-02-13T19:34:17;5.70;99.90
29777;DHT22;16677;52.224;7.484;2023-02-13T19:37:03;5.70;1.00
29777;DHT22;16677;52.224;7.484;2023-02-13T19:39:47;5.60;1.00
29777;DHT22;16677;52.224;7.484;2023-02-13T19:42:18;5.70;1.00
29777;DHT22;16677;52.224;7.484;2023-02-13T19:59:00;5.60;99.90
29777;DHT22;16677;52.224;7.484;2023-02-13T20:01:29;6.00;1.00
29777;DHT22;16677;52.224;7.484;2023-02-13T20:04:10;5.50;99.90
29777;DHT22;16677;52.224;7.484;2023-02-13T20:06:39;5.60;1.00
29777;DHT22;16677;52.224;7.484;2023-02-13T20:49:41;5.20;1.00
29777;DHT22;16677;52.224;7.484;2023-02-13T20:52:08;5.10;99.90
29777;DHT22;16677;52.224;7.484;2023-02-13T20:54:36;5.10;1.00
29777;DHT22;16677;52.224;7.484;2023-02-13T20:57:03;5.00;99.90
29777;DHT22;16677;52.224;7.484;2023-02-13T20:59:30;5.00;1.00
29777;DHT22;16677;52.224;7.484;2023-02-13T21:02:00;5.00;99.90
29777;DHT22;16677;52.224;7.484;2023-02-13T21:07:02;5.20;1.00
29777;DHT22;16677;52.224;7.484;2023-02-13T21:09:36;5.20;99.90
29777;DHT22;16677;52.224;7.484;2023-02-13T21:12:03;5.10;1.00
29777;DHT22;16677;52.224;7.484;2023-02-13T21:14:32;5.00;99.90
29777;DHT22;16677;52.224;7.484;2023-02-13T21:16:59;4.90;1.00
29777;DHT22;16677;52.224;7.484;2023-02-13T21:19:26;4.80;1.00
29777;DHT22;16677;52.224;7.484;2023-02-13T21:21:53;4.80;99.90
29777;DHT22;16677;52.224;7.484;2023-02-13T21:24:21;4.80;99.90
29777;DHT22;16677;52.224;7.484;2023-02-13T21:26:50;4.60;1.00
29777;DHT22;16677;52.224;7.484;2023-02-13T21:29:18;4.60;99.90
29777;DHT22;16677;52.224;7.484;2023-02-13T21:31:47;4.50;99.90
29777;DHT22;16677;52.224;7.484;2023-02-13T21:34:29;4.50;99.90
29777;DHT22;16677;52.224;7.484;2023-02-13T21:36:57;4.40;1.00
29777;DHT22;16677;52.224;7.484;2023-02-13T21:39:24;4.40;1.00
29777;DHT22;16677;52.224;7.484;2023-02-13T21:41:51;4.40;99.90
29777;DHT22;16677;52.224;7.484;2023-02-13T21:44:30;4.30;1.00
29777;DHT22;16677;52.224;7.484;2023-02-13T21:46:58;4.20;99.90
29777;DHT22;16677;52.224;7.484;2023-02-13T21:49:27;4.10;1.00
29777;DHT22;16677;52.224;7.484;2023-02-13T21:51:54;4.30;1.00
29777;DHT22;16677;52.224;7.484;2023-02-13T21:54:27;4.20;1.00